パース の空港の天気 - METARとTAF

パース空港 ( YPPH / PER ) - オーストラリア 西オーストラリア州パース
飛行場実況気象(Metar)
観測時間08/14 05:00 AWST (08/13 21:00 UTC)
風向・風速北北東 2m/s
視程10km以上
天気現象
全天の8割程度の雲 雲底高度 1220m
気温10℃
湿度94%
気圧1015hPa
METARYPPH 132100Z 02004KT 9999 BKN040 10/09 Q1015
過去の天気等 Google飛行場航空写真 Wunderground天気予報

過去48時間のMETAR

飛行場予報(TAF)
発表時間: 8/14 04:19 AWST (8/13 20:19 UTC)
予報対象時間: 14日4時 AWST ~ 15日8時 AWST
風向・風速北東 3m/s
視程10km以上
全天の4割程度の雲 雲底高度 1220m
14日10時 AWST から
風向・風速北北西 4m/s
視程10km以上
全天の8割程度の雲 雲底高度 1220m
14日16時 AWST から
風向・風速不定 3m/s
視程10km以上
全天の8割程度の雲 雲底高度 1370m
14日20時 AWST から
風向・風速東北東 3m/s
視程10km以上
全天の4割程度の雲 雲底高度 1370m
14日5時 AWST から 確率 30% で
視程300m
天気現象
TAF AMD YPPH 132019Z 1320/1500 05005KT 9999 SCT040
FM140200 34008KT 9999 BKN040
FM140800 VRB05KT 9999 BKN045
FM141200 07006KT 9999 SCT045
PROB30 1321/1401 0300 FG